Observation data for Northwest San Angelo on 06/30/2020      Previous  Date  Next       Current Mesonet Observations  Soil Data  Daily Summary Page  Observations in Plain Language
KASU 300500Z 11013KT 28/20 A2987 RMK A01 T02790201  RH  066%=      5-min Rain = 0
KASU 300505Z 11010KT 28/20 A2987 RMK A01 T02790201  RH  066%=      5-min Rain = 0
KASU 300510Z 10010G15KT 28/20 A2987 RMK A01 T02770201  RH  067%=      5-min Rain = 0
KASU 300515Z 11010KT 28/20 A2987 RMK A01 T02760201  RH  067%=      5-min Rain = 0
KASU 300520Z 11011G16KT 28/20 A2987 RMK A01 T02760201  RH  067%=      5-min Rain = 0
KASU 300525Z 12010G15KT 27/20 A2987 RMK A01 T02740201  RH  068%=      5-min Rain = 0
KASU 300530Z 12011KT 27/20 A2987 RMK A01 T02730200  RH  068%=      5-min Rain = 0
KASU 300535Z 12010KT 27/20 A2987 RMK A01 T02730200  RH  068%=      5-min Rain = 0
KASU 300540Z 11009KT 27/20 A2987 RMK A01 T02720200  RH  069%=      5-min Rain = 0
KASU 300545Z 11011G16KT 27/20 A2987 RMK A01 T02720200  RH  069%=      5-min Rain = 0
KASU 300550Z 11011KT 27/20 A2987 RMK A01 T02710201  RH  069%=      5-min Rain = 0
KASU 300555Z 11010KT 27/20 A2986 RMK A01 T02700201  RH  070%=      5-min Rain = 0
KASU 300600Z 11009KT 27/20 A2986 RMK A01 T02690201  RH  070%=      5-min Rain = 0
KASU 300605Z 12011KT 27/20 A2986 RMK A01 T02680201  RH  071%=      5-min Rain = 0
KASU 300610Z 13011KT 27/20 A2986 RMK A01 T02670201  RH  071%=      5-min Rain = 0
KASU 300615Z 12010KT 27/20 A2985 RMK A01 T02660201  RH  072%=      5-min Rain = 0
KASU 300620Z 12011KT 27/20 A2985 RMK A01 T02650201  RH  072%=      5-min Rain = 0
KASU 300625Z 12009KT 26/20 A2985 RMK A01 T02640201  RH  072%=      5-min Rain = 0
KASU 300630Z 11008KT 26/20 A2985 RMK A01 T02640202  RH  073%=      5-min Rain = 0
KASU 300635Z 12007KT 26/20 A2985 RMK A01 T02630201  RH  073%=      5-min Rain = 0
KASU 300640Z 12005KT 26/20 A2985 RMK A01 T02620201  RH  074%=      5-min Rain = 0
KASU 300645Z 13005KT 26/20 A2984 RMK A01 T02600201  RH  074%=      5-min Rain = 0
KASU 300650Z 13006KT 26/20 A2984 RMK A01 T02590201  RH  075%=      5-min Rain = 0
KASU 300655Z 14007KT 26/20 A2984 RMK A01 T02590201  RH  074%=      5-min Rain = 0
KASU 300700Z 14007KT 26/20 A2984 RMK A01 T02590201  RH  074%=      5-min Rain = 0
KASU 300705Z 14006KT 26/20 A2984 RMK A01 T02580201  RH  075%=      5-min Rain = 0
KASU 300710Z 14005KT 26/20 A2984 RMK A01 T02570201  RH  075%=      5-min Rain = 0
KASU 300715Z 12005KT 26/20 A2984 RMK A01 T02550200  RH  076%=      5-min Rain = 0
KASU 300720Z 12005KT 25/20 A2983 RMK A01 T02530200  RH  077%=      5-min Rain = 0
KASU 300725Z 12004KT 25/20 A2983 RMK A01 T02530201  RH  077%=      5-min Rain = 0
KASU 300730Z 12005KT 25/20 A2983 RMK A01 T02510200  RH  078%=      5-min Rain = 0
KASU 300735Z 12005KT 25/20 A2983 RMK A01 T02510200  RH  078%=      5-min Rain = 0
KASU 300740Z 12005KT 25/20 A2983 RMK A01 T02510200  RH  078%=      5-min Rain = 0
KASU 300745Z 13006KT 25/20 A2982 RMK A01 T02510201  RH  078%=      5-min Rain = 0
KASU 300750Z 13006KT 25/20 A2982 RMK A01 T02510201  RH  078%=      5-min Rain = 0
KASU 300755Z 14006KT 25/20 A2982 RMK A01 T02520202  RH  078%=      5-min Rain = 0
KASU 300800Z 14006KT 25/20 A2982 RMK A01 T02520202  RH  078%=      5-min Rain = 0
KASU 300805Z 14006KT 25/20 A2982 RMK A01 T02520203  RH  079%=      5-min Rain = 0
KASU 300810Z 13006KT 25/20 A2982 RMK A01 T02520204  RH  079%=      5-min Rain = 0
KASU 300815Z 13006KT 25/20 A2981 RMK A01 T02510204  RH  080%=      5-min Rain = 0
KASU 300820Z 13006KT 25/21 A2981 RMK A01 T02520205  RH  080%=      5-min Rain = 0
KASU 300825Z 14005KT 25/21 A2981 RMK A01 T02500205  RH  081%=      5-min Rain = 0
KASU 300830Z 14006KT 25/21 A2982 RMK A01 T02500205  RH  081%=      5-min Rain = 0
KASU 300835Z 15006KT 25/21 A2982 RMK A01 T02500206  RH  081%=      5-min Rain = 0
KASU 300840Z 15007KT 25/21 A2981 RMK A01 T02510206  RH  081%=      5-min Rain = 0
KASU 300845Z 14006KT 25/21 A2981 RMK A01 T02520208  RH  081%=      5-min Rain = 0
KASU 300850Z 14005KT 25/21 A2981 RMK A01 T02510208  RH  082%=      5-min Rain = 0
KASU 300855Z 14006KT 25/21 A2981 RMK A01 T02510209  RH  082%=      5-min Rain = 0
KASU 300900Z 14006KT 25/21 A2981 RMK A01 T02520210  RH  082%=      5-min Rain = 0
KASU 300905Z 14005KT 25/21 A2982 RMK A01 T02520210  RH  083%=      5-min Rain = 0
KASU 300910Z 14006KT 25/21 A2981 RMK A01 T02530211  RH  083%=      5-min Rain = 0
KASU 300915Z 15006KT 25/21 A2981 RMK A01 T02530212  RH  083%=      5-min Rain = 0
KASU 300920Z 15007KT 25/21 A2981 RMK A01 T02520212  RH  083%=      5-min Rain = 0
KASU 300925Z 15007KT 25/21 A2981 RMK A01 T02520212  RH  084%=      5-min Rain = 0
KASU 300930Z 15007KT 25/21 A2981 RMK A01 T02510213  RH  084%=      5-min Rain = 0
KASU 300935Z 15006KT 25/21 A2981 RMK A01 T02500212  RH  085%=      5-min Rain = 0
KASU 300940Z 15006KT 25/21 A2981 RMK A01 T02490213  RH  085%=      5-min Rain = 0
KASU 300945Z 16006KT 25/21 A2981 RMK A01 T02490213  RH  085%=      5-min Rain = 0
KASU 300950Z 16005KT 25/21 A2982 RMK A01 T02490212  RH  085%=      5-min Rain = 0
KASU 300955Z 17005KT 25/21 A2982 RMK A01 T02480212  RH  085%=      5-min Rain = 0
KASU 301000Z 17006KT 25/21 A2982 RMK A01 T02480212  RH  085%=      5-min Rain = 0
KASU 301005Z 17006KT 25/21 A2982 RMK A01 T02490212  RH  085%=      5-min Rain = 0
KASU 301010Z 16007KT 25/21 A2982 RMK A01 T02500213  RH  085%=      5-min Rain = 0
KASU 301015Z 16005KT 25/21 A2982 RMK A01 T02490213  RH  085%=      5-min Rain = 0
KASU 301020Z 16006KT 25/21 A2982 RMK A01 T02490213  RH  086%=      5-min Rain = 0
KASU 301025Z 15007KT 25/21 A2982 RMK A01 T02490213  RH  086%=      5-min Rain = 0
KASU 301030Z 15007KT 25/21 A2983 RMK A01 T02490214  RH  086%=      5-min Rain = 0
KASU 301035Z 15007KT 25/21 A2983 RMK A01 T02490214  RH  086%=      5-min Rain = 0
KASU 301040Z 15005KT 25/21 A2983 RMK A01 T02490214  RH  086%=      5-min Rain = 0
KASU 301045Z 16006KT 25/21 A2983 RMK A01 T02500214  RH  086%=      5-min Rain = 0
KASU 301050Z 16006KT 25/21 A2983 RMK A01 T02510214  RH  085%=      5-min Rain = 0
KASU 301055Z 17005KT 25/21 A2983 RMK A01 T02510214  RH  085%=      5-min Rain = 0
KASU 301100Z 16005KT 25/22 A2984 RMK A01 T02520215  RH  085%=      5-min Rain = 0
KASU 301105Z 16005KT 25/22 A2984 RMK A01 T02530215  RH  085%=      5-min Rain = 0
KASU 301110Z 16004KT 25/22 A2984 RMK A01 T02530215  RH  085%=      5-min Rain = 0
KASU 301115Z 15004KT 25/22 A2984 RMK A01 T02530215  RH  085%=      5-min Rain = 0
KASU 301120Z 15004KT 25/22 A2984 RMK A01 T02540215  RH  085%=      5-min Rain = 0
KASU 301125Z 15005KT 25/22 A2984 RMK A01 T02540216  RH  084%=      5-min Rain = 0
KASU 301130Z 15006KT 26/22 A2984 RMK A01 T02550216  RH  084%=      5-min Rain = 0
KASU 301135Z 16006KT 26/22 A2984 RMK A01 T02560216  RH  084%=      5-min Rain = 0
KASU 301140Z 16006KT 26/22 A2984 RMK A01 T02560216  RH  084%=      5-min Rain = 0
KASU 301145Z 16007KT 26/22 A2984 RMK A01 T02560216  RH  084%=      5-min Rain = 0
KASU 301150Z 16007KT 26/22 A2984 RMK A01 T02560216  RH  084%=      5-min Rain = 0
KASU 301155Z 17006KT 26/22 A2985 RMK A01 T02560216  RH  084%=      5-min Rain = 0
KASU 301200Z 16007KT 26/22 A2985 RMK A01 T02560216  RH  083%=      5-min Rain = 0
KASU 301205Z 16007KT 26/22 A2985 RMK A01 T02570216  RH  083%=      5-min Rain = 0
KASU 301210Z 17007KT 26/22 A2985 RMK A01 T02580216  RH  083%=      5-min Rain = 0
KASU 301215Z 16007KT 26/22 A2985 RMK A01 T02590216  RH  082%=      5-min Rain = 0
KASU 301220Z 17007KT 26/22 A2986 RMK A01 T02600216  RH  082%=      5-min Rain = 0
KASU 301225Z 16007KT 26/22 A2986 RMK A01 T02610217  RH  081%=      5-min Rain = 0
KASU 301230Z 17008KT 26/22 A2986 RMK A01 T02620217  RH  081%=      5-min Rain = 0
KASU 301235Z 16008KT 26/22 A2985 RMK A01 T02620217  RH  081%=      5-min Rain = 0
KASU 301240Z 17008KT 26/22 A2986 RMK A01 T02620216  RH  081%=      5-min Rain = 0
KASU 301245Z 16007KT 26/22 A2986 RMK A01 T02630217  RH  081%=      5-min Rain = 0
KASU 301250Z 16008KT 26/22 A2986 RMK A01 T02630216  RH  080%=      5-min Rain = 0
KASU 301255Z 17009KT 26/22 A2986 RMK A01 T02640216  RH  080%=      5-min Rain = 0
KASU 301300Z 17008KT 26/22 A2986 RMK A01 T02640216  RH  080%=      5-min Rain = 0
KASU 301305Z 17007KT 27/22 A2986 RMK A01 T02650216  RH  080%=      5-min Rain = 0
KASU 301310Z 17009KT 27/22 A2986 RMK A01 T02670216  RH  078%=      5-min Rain = 0
KASU 301315Z 17009KT 27/22 A2986 RMK A01 T02700217  RH  077%=      5-min Rain = 0
KASU 301320Z 17010G15KT 27/22 A2986 RMK A01 T02740217  RH  076%=      5-min Rain = 0
KASU 301325Z 17010KT 28/22 A2986 RMK A01 T02760217  RH  075%=      5-min Rain = 0
KASU 301330Z 18010KT 28/22 A2986 RMK A01 T02770217  RH  075%=      5-min Rain = 0
KASU 301335Z 18011KT 28/22 A2986 RMK A01 T02780217  RH  074%=      5-min Rain = 0
KASU 301340Z 17010KT 28/22 A2987 RMK A01 T02780216  RH  074%=      5-min Rain = 0
KASU 301345Z 18011G16KT 28/22 A2987 RMK A01 T02790216  RH  073%=      5-min Rain = 0
KASU 301350Z 18012KT 28/22 A2987 RMK A01 T02780215  RH  073%=      5-min Rain = 0
KASU 301355Z 17013G19KT 28/22 A2987 RMK A01 T02800215  RH  072%=      5-min Rain = 0
KASU 301400Z 18013KT 28/22 A2987 RMK A01 T02780215  RH  073%=      5-min Rain = 0
KASU 301405Z 18011KT 28/22 A2987 RMK A01 T02780215  RH  073%=      5-min Rain = 0
KASU 301410Z 18012G17KT 28/21 A2987 RMK A01 T02790214  RH  072%=      5-min Rain = 0
KASU 301415Z 18012G18KT 28/22 A2987 RMK A01 T02810215  RH  072%=      5-min Rain = 0
KASU 301420Z 18013G18KT 28/22 A2988 RMK A01 T02800215  RH  072%=      5-min Rain = 0
KASU 301425Z 18010KT 29/22 A2988 RMK A01 T02850216  RH  071%=      5-min Rain = 0
KASU 301430Z 18012KT 28/22 A2988 RMK A01 T02840215  RH  070%=      5-min Rain = 0
KASU 301435Z 18011KT 29/22 A2988 RMK A01 T02850215  RH  070%=      5-min Rain = 0
KASU 301440Z 19011KT 28/22 A2988 RMK A01 T02840215  RH  070%=      5-min Rain = 0
KASU 301445Z 19010KT 29/21 A2988 RMK A01 T02850214  RH  070%=      5-min Rain = 0
KASU 301450Z 19011KT 29/21 A2988 RMK A01 T02860214  RH  069%=      5-min Rain = 0
KASU 301455Z 18013G18KT 29/21 A2988 RMK A01 T02880213  RH  068%=      5-min Rain = 0
KASU 301500Z 18013G20KT 29/21 A2988 RMK A01 T02920213  RH  067%=      5-min Rain = 0
KASU 301505Z 18013G18KT 30/21 A2988 RMK A01 T03010214  RH  064%=      5-min Rain = 0
KASU 301510Z 19013KT 30/21 A2988 RMK A01 T02970212  RH  064%=      5-min Rain = 0
KASU 301515Z 20012G18KT 30/21 A2988 RMK A01 T02960212  RH  064%=      5-min Rain = 0
KASU 301520Z 20014G20KT 29/21 A2988 RMK A01 T02910209  RH  065%=      5-min Rain = 0
KASU 301525Z 20012G17KT 29/21 A2988 RMK A01 T02930210  RH  065%=      5-min Rain = 0
KASU 301530Z 19013G18KT 29/21 A2988 RMK A01 T02940209  RH  064%=      5-min Rain = 0
KASU 301535Z 19013KT 29/21 A2988 RMK A01 T02920209  RH  064%=      5-min Rain = 0
KASU 301540Z 19011G16KT 29/21 A2988 RMK A01 T02940209  RH  064%=      5-min Rain = 0
KASU 301545Z 18012KT 30/21 A2988 RMK A01 T02990210  RH  063%=      5-min Rain = 0
KASU 301550Z 18013KT 30/21 A2987 RMK A01 T03020211  RH  062%=      5-min Rain = 0
KASU 301555Z 17013KT 31/21 A2988 RMK A01 T03060211  RH  060%=      5-min Rain = 0
KASU 301600Z 18012G18KT 30/21 A2988 RMK A01 T03040210  RH  061%=      5-min Rain = 0
KASU 301605Z 20014G20KT 30/21 A2988 RMK A01 T03000208  RH  061%=      5-min Rain = 0
KASU 301610Z 20011G16KT 30/21 A2988 RMK A01 T03030209  RH  061%=      5-min Rain = 0
KASU 301615Z 20011G17KT 31/21 A2988 RMK A01 T03050209  RH  060%=      5-min Rain = 0
KASU 301620Z 20012G18KT 31/21 A2988 RMK A01 T03090209  RH  059%=      5-min Rain = 0
KASU 301625Z 19010G15KT 31/21 A2988 RMK A01 T03100210  RH  059%=      5-min Rain = 0
KASU 301630Z 19011G17KT 32/21 A2988 RMK A01 T03170209  RH  056%=      5-min Rain = 0
KASU 301635Z 19012G18KT 32/21 A2988 RMK A01 T03180207  RH  055%=      5-min Rain = 0
KASU 301640Z 19012G18KT 32/21 A2988 RMK A01 T03180208  RH  055%=      5-min Rain = 0
KASU 301645Z 19011G17KT 32/21 A2988 RMK A01 T03170209  RH  056%=      5-min Rain = 0
KASU 301650Z 17010KT 33/21 A2988 RMK A01 T03250210  RH  054%=      5-min Rain = 0
KASU 301655Z 17014KT 33/21 A2988 RMK A01 T03290210  RH  053%=      5-min Rain = 0
KASU 301700Z 16011G16KT 33/21 A2987 RMK A01 T03270209  RH  053%=      5-min Rain = 0
KASU 301705Z 17013KT 33/21 A2987 RMK A01 T03260209  RH  053%=      5-min Rain = 0
KASU 301710Z 19013G18KT 33/21 A2987 RMK A01 T03250208  RH  053%=      5-min Rain = 0
KASU 301715Z 19013G19KT 32/21 A2987 RMK A01 T03230206  RH  053%=      5-min Rain = 0
KASU 301720Z 18011KT 33/21 A2987 RMK A01 T03280205  RH  052%=      5-min Rain = 0
KASU 301725Z 18010G15KT 33/20 A2986 RMK A01 T03320203  RH  050%=      5-min Rain = 0
KASU 301730Z 18011G17KT 33/20 A2986 RMK A01 T03330202  RH  049%=      5-min Rain = 0
KASU 301735Z 18013G18KT 33/20 A2986 RMK A01 T03310203  RH  050%=      5-min Rain = 0
KASU 301740Z 17011KT 33/20 A2987 RMK A01 T03340201  RH  048%=      5-min Rain = 0
KASU 301745Z 17012KT 33/20 A2987 RMK A01 T03340200  RH  048%=      5-min Rain = 0
KASU 301750Z 18011G17KT 33/20 A2987 RMK A01 T03330200  RH  049%=      5-min Rain = 0
KASU 301755Z 18012G18KT 33/20 A2986 RMK A01 T03330202  RH  049%=      5-min Rain = 0
KASU 301800Z 21012KT 33/20 A2986 RMK A01 T03310199  RH  049%=      5-min Rain = 0
KASU 301805Z 18011G17KT 33/20 A2986 RMK A01 T03340199  RH  048%=      5-min Rain = 0
KASU 301810Z 19012G17KT 34/20 A2986 RMK A01 T03400198  RH  046%=      5-min Rain = 0
KASU 301815Z 18010G15KT 34/20 A2986 RMK A01 T03390196  RH  046%=      5-min Rain = 0
KASU 301820Z 19011KT 34/19 A2986 RMK A01 T03430192  RH  043%=      5-min Rain = 0
KASU 301825Z 20009G14KT 34/19 A2985 RMK A01 T03400187  RH  043%=      5-min Rain = 0
KASU 301830Z 21008G14KT 34/19 A2985 RMK A01 T03410189  RH  043%=      5-min Rain = 0
KASU 301835Z 19008KT 34/19 A2985 RMK A01 T03400190  RH  044%=      5-min Rain = 0
KASU 301840Z 20012G17KT 34/19 A2985 RMK A01 T03420191  RH  043%=      5-min Rain = 0
KASU 301845Z 22009G14KT 34/19 A2985 RMK A01 T03400191  RH  044%=      5-min Rain = 0
KASU 301850Z 22010KT 35/19 A2985 RMK A01 T03450191  RH  043%=      5-min Rain = 0
KASU 301855Z 20009G16KT 35/19 A2985 RMK A01 T03450187  RH  042%=      5-min Rain = 0
KASU 301900Z 24008G13KT 34/19 A2985 RMK A01 T03440185  RH  041%=      5-min Rain = 0
KASU 301905Z 19009KT 35/19 A2984 RMK A01 T03490185  RH  040%=      5-min Rain = 0
KASU 301910Z 18009KT 35/19 A2984 RMK A01 T03480185  RH  040%=      5-min Rain = 0
KASU 301915Z 19008KT 35/18 A2984 RMK A01 T03490183  RH  039%=      5-min Rain = 0
KASU 301920Z 22008KT 35/18 A2984 RMK A01 T03490183  RH  040%=      5-min Rain = 0
KASU 301925Z 23010KT 35/18 A2984 RMK A01 T03480180  RH  039%=      5-min Rain = 0
KASU 301930Z 22006KT 35/18 A2984 RMK A01 T03500178  RH  038%=      5-min Rain = 0
KASU 301935Z 20008KT 35/18 A2984 RMK A01 T03520178  RH  038%=      5-min Rain = 0
KASU 301940Z 21005KT 35/18 A2983 RMK A01 T03530178  RH  037%=      5-min Rain = 0
KASU 301945Z 22007KT 35/18 A2983 RMK A01 T03530179  RH  038%=      5-min Rain = 0
KASU 301950Z 21006KT 36/18 A2983 RMK A01 T03560178  RH  037%=      5-min Rain = 0
KASU 301955Z 22008KT 36/18 A2983 RMK A01 T03550176  RH  037%=      5-min Rain = 0
KASU 302000Z 23008KT 36/17 A2982 RMK A01 T03550174  RH  036%=      5-min Rain = 0
KASU 302005Z 22007KT 36/17 A2982 RMK A01 T03580174  RH  036%=      5-min Rain = 0
KASU 302010Z 21007G14KT 36/18 A2982 RMK A01 T03590176  RH  036%=      5-min Rain = 0
KASU 302015Z 20008G13KT 36/18 A2982 RMK A01 T03580177  RH  036%=      5-min Rain = 0
KASU 302020Z 22008KT 36/17 A2982 RMK A01 T03550173  RH  036%=      5-min Rain = 0
KASU 302025Z 19008KT 36/17 A2982 RMK A01 T03570172  RH  035%=      5-min Rain = 0
KASU 302030Z 21008G13KT 36/17 A2981 RMK A01 T03580171  RH  035%=      5-min Rain = 0
KASU 302035Z 21008KT 36/17 A2981 RMK A01 T03580169  RH  034%=      5-min Rain = 0
KASU 302040Z 23005KT 36/17 A2981 RMK A01 T03600169  RH  034%=      5-min Rain = 0
KASU 302045Z 20005KT 36/17 A2981 RMK A01 T03640171  RH  034%=      5-min Rain = 0
KASU 302050Z 22005G10KT 37/17 A298 RMK A01 T03650169  RH  033%=      5-min Rain = 0
KASU 302055Z 25006KT 37/17 A298 RMK A01 T03660169  RH  033%=      5-min Rain = 0
KASU 302100Z 23008G14KT 37/17 A298 RMK A01 T03670169  RH  033%=      5-min Rain = 0
KASU 302105Z 22008KT 37/17 A298 RMK A01 T03670170  RH  033%=      5-min Rain = 0
KASU 302110Z 21007G13KT 36/17 A298 RMK A01 T03640170  RH  034%=      5-min Rain = 0
KASU 302115Z 22009G14KT 36/17 A2979 RMK A01 T03640173  RH  034%=      5-min Rain = 0
KASU 302120Z 22008G13KT 37/17 A2979 RMK A01 T03680173  RH  034%=      5-min Rain = 0
KASU 302125Z 21009G14KT 36/17 A2979 RMK A01 T03630171  RH  034%=      5-min Rain = 0
KASU 302130Z 24008KT 37/17 A2979 RMK A01 T03650171  RH  034%=      5-min Rain = 0
KASU 302135Z 22006G11KT 37/17 A2978 RMK A01 T03660170  RH  033%=      5-min Rain = 0
KASU 302140Z 17008G14KT 37/17 A2978 RMK A01 T03680169  RH  033%=      5-min Rain = 0
KASU 302145Z 17009KT 38/17 A2978 RMK A01 T03770167  RH  031%=      5-min Rain = 0
KASU 302150Z 15008KT 38/16 A2978 RMK A01 T03780164  RH  030%=      5-min Rain = 0
KASU 302155Z 16007KT 38/17 A2978 RMK A01 T03790165  RH  030%=      5-min Rain = 0
KASU 302200Z 16009G15KT 38/17 A2978 RMK A01 T03800167  RH  030%=      5-min Rain = 0
KASU 302205Z 19008G15KT 37/17 A2978 RMK A01 T03730166  RH  031%=      5-min Rain = 0
KASU 302210Z 18009KT 39/17 A2977 RMK A01 T03870168  RH  029%=      5-min Rain = 0
KASU 302215Z 16008KT 39/17 A2978 RMK A01 T03880166  RH  029%=      5-min Rain = 0
KASU 302220Z 18010G15KT 39/16 A2978 RMK A01 T03860159  RH  028%=      5-min Rain = 0
KASU 302225Z 15010G15KT 39/16 A2978 RMK A01 T03860160  RH  028%=      5-min Rain = 0
KASU 302230Z 15010KT 38/16 A2978 RMK A01 T03840158  RH  028%=      5-min Rain = 0
KASU 302235Z 14009G15KT 38/16 A2978 RMK A01 T03820159  RH  028%=      5-min Rain = 0
KASU 302240Z 14010G15KT 38/16 A2978 RMK A01 T03780158  RH  029%=      5-min Rain = 0
KASU 302245Z 16008G14KT 38/16 A2978 RMK A01 T03810158  RH  028%=      5-min Rain = 0
KASU 302250Z 16008KT 38/16 A2978 RMK A01 T03830155  RH  027%=      5-min Rain = 0
KASU 302255Z 17008KT 39/15 A2978 RMK A01 T03850150  RH  026%=      5-min Rain = 0
KASU 302300Z 20005KT 38/15 A2978 RMK A01 T03820149  RH  026%=      5-min Rain = 0
KASU 302305Z 17009G15KT 39/15 A2978 RMK A01 T03870149  RH  026%=      5-min Rain = 0
KASU 302310Z 18009KT 38/15 A2978 RMK A01 T03830151  RH  027%=      5-min Rain = 0
KASU 302315Z 18009G15KT 38/15 A2978 RMK A01 T03830153  RH  027%=      5-min Rain = 0
KASU 302320Z 19009KT 38/15 A2977 RMK A01 T03810153  RH  027%=      5-min Rain = 0
KASU 302325Z 18007KT 38/16 A2977 RMK A01 T03810155  RH  028%=      5-min Rain = 0
KASU 302330Z 15008KT 39/16 A2977 RMK A01 T03850158  RH  028%=      5-min Rain = 0
KASU 302335Z 17007KT 38/16 A2977 RMK A01 T03800156  RH  028%=      5-min Rain = 0
KASU 302340Z 17009KT 38/15 A2977 RMK A01 T03800153  RH  028%=      5-min Rain = 0
KASU 302345Z 17009G14KT 38/15 A2977 RMK A01 T03760151  RH  028%=      5-min Rain = 0
KASU 302350Z 15007G12KT 38/15 A2977 RMK A01 T03760154  RH  028%=      5-min Rain = 0
KASU 302355Z 17008KT 38/16 A2976 RMK A01 T03790158  RH  029%=      5-min Rain = 0
KASU 010000Z 15010KT 38/16 A2976 RMK A01 T03800163  RH  029%=      5-min Rain = 0
KASU 010005Z 14009KT 38/16 A2976 RMK A01 T03790163  RH  029%=      5-min Rain = 0
KASU 010010Z 15010G15KT 38/16 A2976 RMK A01 T03780158  RH  029%=      5-min Rain = 0
KASU 010015Z 16010KT 38/16 A2976 RMK A01 T03750157  RH  029%=      5-min Rain = 0
KASU 010020Z 16010KT 38/16 A2976 RMK A01 T03750157  RH  029%=      5-min Rain = 0
KASU 010025Z 15008KT 37/16 A2976 RMK A01 T03720156  RH  029%=      5-min Rain = 0
KASU 010030Z 17009KT 37/16 A2976 RMK A01 T03680156  RH  030%=      5-min Rain = 0
KASU 010035Z 17007KT 37/16 A2976 RMK A01 T03670157  RH  030%=      5-min Rain = 0
KASU 010040Z 17007KT 37/16 A2976 RMK A01 T03670156  RH  030%=      5-min Rain = 0
KASU 010045Z 18008KT 37/16 A2976 RMK A01 T03680157  RH  030%=      5-min Rain = 0
KASU 010050Z 19007KT 37/16 A2976 RMK A01 T03660156  RH  030%=      5-min Rain = 0
KASU 010055Z 19006KT 37/16 A2976 RMK A01 T03650156  RH  030%=      5-min Rain = 0
KASU 010100Z 19006KT 37/16 A2976 RMK A01 T03650157  RH  030%=      5-min Rain = 0
KASU 010105Z 18007KT 36/16 A2977 RMK A01 T03640157  RH  031%=      5-min Rain = 0
KASU 010110Z 18006KT 36/16 A2976 RMK A01 T03620157  RH  031%=      5-min Rain = 0
KASU 010115Z 17005KT 36/16 A2976 RMK A01 T03610158  RH  031%=      5-min Rain = 0
KASU 010120Z 17005KT 36/16 A2976 RMK A01 T03590159  RH  032%=      5-min Rain = 0
KASU 010125Z 17007G12KT 36/16 A2977 RMK A01 T03570159  RH  032%=      5-min Rain = 0
KASU 010130Z 13015G21KT 35/17 A2978 RMK A01 T03470174  RH  038%=      5-min Rain = 0
KASU 010135Z 12015G20KT 33/18 A2978 RMK A01 T03280184  RH  045%=      5-min Rain = 0
KASU 010140Z 13015G20KT 32/18 A2979 RMK A01 T03210184  RH  047%=      5-min Rain = 0
KASU 010145Z 13019G25KT 32/18 A2979 RMK A01 T03190181  RH  046%=      5-min Rain = 0
KASU 010150Z 14020G27KT 30/18 A2979 RMK A01 T02970178  RH  052%=      5-min Rain = 0
KASU 010155Z 14023G31KT 29/19 A2979 RMK A01 T02930187  RH  056%=      5-min Rain = 0
KASU 010200Z 14022G29KT 29/18 A2979 RMK A01 T02890180  RH  055%=      5-min Rain = 0
KASU 010205Z 14025G36KT 29/17 A2979 RMK A01 T02870174  RH  053%=      5-min Rain = 0
KASU 010210Z 14025G38KT 28/17 A2979 RMK A01 T02760172  RH  056%=      5-min Rain = 0
KASU 010215Z 15021G33KT 28/17 A2979 RMK A01 T02820167  RH  052%=      5-min Rain = 0
KASU 010220Z 15024G36KT 28/18 A2979 RMK A01 T02810175  RH  056%=      5-min Rain = 0
KASU 010225Z 14025G34KT 28/17 A2979 RMK A01 T02800174  RH  055%=      5-min Rain = 0
KASU 010230Z 14022G31KT 29/18 A2981 RMK A01 T02860184  RH  057%=      5-min Rain = 0
KASU 010235Z 14020G35KT 29/18 A2982 RMK A01 T02880175  RH  053%=      5-min Rain = 0
KASU 010240Z 14018G25KT 29/18 A2982 RMK A01 T02850181  RH  056%=      5-min Rain = 0
KASU 010245Z 14017G24KT 29/19 A2982 RMK A01 T02850191  RH  060%=      5-min Rain = 0
KASU 010250Z 14013G18KT 28/19 A2982 RMK A01 T02830194  RH  062%=      5-min Rain = 0
KASU 010255Z 12011G16KT 28/19 A2983 RMK A01 T02830191  RH  061%=      5-min Rain = 0
KASU 010300Z 10008KT 29/19 A2984 RMK A01 T02880185  RH  057%=      5-min Rain = 0
KASU 010305Z 09009G14KT 29/19 A2984 RMK A01 T02900185  RH  056%=      5-min Rain = 0
KASU 010310Z 08010KT 28/19 A2984 RMK A01 T02810189  RH  061%=      5-min Rain = 0
KASU 010315Z 08009KT 28/19 A2984 RMK A01 T02750193  RH  064%=      5-min Rain = 0
KASU 010320Z 08007KT 28/19 A2985 RMK A01 T02760194  RH  065%=      5-min Rain = 0
KASU 010325Z 07006KT 28/19 A2987 RMK A01 T02800194  RH  063%=      5-min Rain = 0
KASU 010330Z 09004KT 28/19 A2987 RMK A01 T02830193  RH  062%=      5-min Rain = 0
KASU 010335Z 10005KT 28/19 A2987 RMK A01 T02840193  RH  061%=      5-min Rain = 0
KASU 010340Z 09007KT 28/19 A2987 RMK A01 T02810193  RH  062%=      5-min Rain = 0
KASU 010345Z 09007KT 28/19 A2987 RMK A01 T02800191  RH  062%=      5-min Rain = 0
KASU 010350Z 06008KT 28/19 A2988 RMK A01 T02820191  RH  061%=      5-min Rain = 0
KASU 010355Z 04007KT 28/19 A2988 RMK A01 T02800190  RH  061%=      5-min Rain = 0
KASU 010400Z 04006G11KT 28/19 A2989 RMK A01 T02800188  RH  061%=      5-min Rain = 0
KASU 010405Z 05007KT 29/19 A2989 RMK A01 T02860189  RH  059%=      5-min Rain = 0
KASU 010410Z 07009KT 29/19 A299 RMK A01 T02910189  RH  057%=      5-min Rain = 0
KASU 010415Z 05008KT 29/19 A299 RMK A01 T02880190  RH  058%=      5-min Rain = 0
KASU 010420Z 05005KT 29/19 A299 RMK A01 T02860190  RH  059%=      5-min Rain = 0
KASU 010425Z 06005KT 29/19 A299 RMK A01 T02860190  RH  059%=      5-min Rain = 0
KASU 010430Z 08006KT 29/19 A2991 RMK A01 T02880190  RH  059%=      5-min Rain = 0
KASU 010435Z 07005KT 29/19 A2991 RMK A01 T02870190  RH  059%=      5-min Rain = 0
KASU 010440Z 09003KT 29/19 A299 RMK A01 T02850191  RH  060%=      5-min Rain = 0
KASU 010445Z 08003KT 28/19 A299 RMK A01 T02820192  RH  061%=      5-min Rain = 0
KASU 010450Z 08003KT 28/19 A299 RMK A01 T02800192  RH  062%=      5-min Rain = 0
KASU 010455Z 05003KT 28/19 A299 RMK A01 T02780193  RH  063%=      5-min Rain = 0

Page generated in 0.0097 seconds.